Meloria — IBXK — position and weather

sailwx.info

Track history (hours):
 
Tides and Currents Weather Stations Pressure Air Temp Water Temp Dewpoint Dewpoint Depression Visibility Wind Speed Wind Dir Waves Ship Positions

Meloria

Last reported at 2016-Sep-27 19:33 UTC. Time now 2016-Sep-27 20:39 UTC.
Position N 38°13' E 015°16'.

Length 176 m; draft 7.2 m.

Type: Tanker. MMSI: 247171100.

Date/timePositionNaut miles runAvg speedWind from/ knotsBaromVisibWave heightAir tempDewpointWater temp
2016-Sep-27 19:33N 38°13' E 015°16'0 0.0
2016-Sep-27 14:33N 38°13' E 015°16'0 0.0
2016-Sep-27 13:33N 38°13' E 015°16'0 0.0
2016-Sep-27 10:33N 38°13' E 015°16'0 0.0
2016-Sep-26 15:33N 38°13' E 015°16'1 0.4
2016-Sep-26 13:33N 38°13' E 015°17'0 0.0
2016-Sep-26 11:27N 38°13' E 015°17'0 0.0
2016-Sep-26 08:33N 38°13' E 015°17'0 0.0
2016-Sep-26 02:33N 38°13' E 015°17'0 0.1
2016-Sep-26 01:33N 38°13' E 015°17'0 0.1
2016-Sep-26 00:33N 38°13' E 015°17'0 0.0
2016-Sep-25 21:33N 38°13' E 015°17'0 0.0
2016-Sep-25 17:15N 38°13' E 015°17'0 0.1
2016-Sep-25 16:33N 38°13' E 015°17'0 0.0
2016-Sep-25 15:33N 38°13' E 015°17'0 0.0
2016-Sep-25 14:33N 38°13' E 015°17'0 0.0
2016-Sep-25 12:33N 38°13' E 015°17'0 0.1
2016-Sep-25 11:32N 38°13' E 015°17'0 0.1
2016-Sep-25 10:32N 38°13' E 015°17'0 0.0
2016-Sep-25 09:32N 38°13' E 015°17'0 0.1
2016-Sep-25 07:32N 38°13' E 015°17'0 0.0
2016-Sep-25 04:32N 38°13' E 015°17'0 0.0
2016-Sep-25 00:32N 38°13' E 015°17'0 0.0
2016-Sep-24 22:32N 38°13' E 015°17'0 0.0
2016-Sep-24 21:32N 38°13' E 015°17'0 0.0
2016-Sep-24 19:32N 38°13' E 015°17'0 0.1
2016-Sep-24 18:32N 38°13' E 015°17'4 4.6
2016-Sep-24 17:34N 38°17' E 015°18'1312.5
2016-Sep-24 16:33N 38°30' E 015°23'2411.8
2016-Sep-24 14:32N 38°53' E 015°18'36012.4
2016-Sep-23 09:33N 43°32' E 010°15'4 1.4
2016-Sep-23 06:31N 43°35' E 010°19'0 0.0
2016-Sep-23 04:31N 43°35' E 010°19'0 0.0
2016-Sep-23 03:31N 43°35' E 010°19'0 0.0
2016-Sep-23 02:31N 43°35' E 010°19'0 0.0
2016-Sep-23 01:31N 43°35' E 010°19'0 0.0
2016-Sep-23 00:31N 43°35' E 010°19'0 0.0
2016-Sep-22 23:31N 43°35' E 010°19'0 0.0
2016-Sep-22 20:30N 43°35' E 010°19'0 0.0
2016-Sep-22 12:33N 43°35' E 010°19'6 0.7
2016-Sep-22 04:33N 43°30' E 010°17'0 0.1
2016-Sep-22 03:30N 43°30' E 010°17'0 0.0
2016-Sep-22 00:33N 43°30' E 010°17'0 0.1
2016-Sep-21 23:30N 43°30' E 010°17'0 0.0
2016-Sep-21 22:33N 43°30' E 010°17'0 0.0
2016-Sep-21 19:33N 43°30' E 010°17'12 4.0
2016-Sep-21 16:33N 43°19' E 010°10'36612.2
2016-Sep-20 10:31N 38°38' E 015°21'2513.0
2016-Sep-20 08:33N 38°13' E 015°16'0 0.4
2016-Sep-20 07:31N 38°13' E 015°16'0 0.0
2016-Sep-20 06:30N 38°13' E 015°16'0 0.0
2016-Sep-20 02:30N 38°13' E 015°16'0 0.0
2016-Sep-19 23:30N 38°13' E 015°16'0 0.0
2016-Sep-19 19:30N 38°13' E 015°16'0 0.0
2016-Sep-19 18:30N 38°13' E 015°16'0 0.0
2016-Sep-19 14:06N 38°13' E 015°16'0 0.0
2016-Sep-19 13:30N 38°13' E 015°16'0 0.0
2016-Sep-19 12:30N 38°13' E 015°16'0 0.0
2016-Sep-19 11:30N 38°13' E 015°16'0 0.0
2016-Sep-19 09:30N 38°13' E 015°16'0 0.0
2016-Sep-19 07:30N 38°13' E 015°16'0 0.0
2016-Sep-19 06:30N 38°13' E 015°16'6 2.0
2016-Sep-19 03:34N 38°18' E 015°18'1313.2
2016-Sep-19 02:34N 38°32' E 015°19'2613.1
2016-Sep-19 00:34N 38°58' E 015°17'10511.7
2016-Sep-18 15:34N 40°29' E 014°10'  
Track history (hours):
 
Tides and Currents Weather Stations Pressure Air Temp Water Temp Dewpoint Dewpoint Depression Visibility Wind Speed Wind Dir Waves Ship Positions

Meloria

Last reported at 2016-Sep-27 19:33 UTC. Time now 2016-Sep-27 20:39 UTC.
Position N 38°13' E 015°16'.

Length 176 m; draft 7.2 m.

Type: Tanker. MMSI: 247171100.

Date/timePositionNaut miles runAvg speedWind from/ knotsBaromVisibWave heightAir tempDewpointWater temp
2016-Sep-27 19:33N 38°13' E 015°16'0 0.0
2016-Sep-27 14:33N 38°13' E 015°16'0 0.0
2016-Sep-27 13:33N 38°13' E 015°16'0 0.0
2016-Sep-27 10:33N 38°13' E 015°16'0 0.0
2016-Sep-26 15:33N 38°13' E 015°16'1 0.4
2016-Sep-26 13:33N 38°13' E 015°17'0 0.0
2016-Sep-26 11:27N 38°13' E 015°17'0 0.0
2016-Sep-26 08:33N 38°13' E 015°17'0 0.0
2016-Sep-26 02:33N 38°13' E 015°17'0 0.1
2016-Sep-26 01:33N 38°13' E 015°17'0 0.1
2016-Sep-26 00:33N 38°13' E 015°17'0 0.0
2016-Sep-25 21:33N 38°13' E 015°17'0 0.0
2016-Sep-25 17:15N 38°13' E 015°17'0 0.1
2016-Sep-25 16:33N 38°13' E 015°17'0 0.0
2016-Sep-25 15:33N 38°13' E 015°17'0 0.0
2016-Sep-25 14:33N 38°13' E 015°17'0 0.0
2016-Sep-25 12:33N 38°13' E 015°17'0 0.1
2016-Sep-25 11:32N 38°13' E 015°17'0 0.1
2016-Sep-25 10:32N 38°13' E 015°17'0 0.0
2016-Sep-25 09:32N 38°13' E 015°17'0 0.1
2016-Sep-25 07:32N 38°13' E 015°17'0 0.0
2016-Sep-25 04:32N 38°13' E 015°17'0 0.0
2016-Sep-25 00:32N 38°13' E 015°17'0 0.0
2016-Sep-24 22:32N 38°13' E 015°17'0 0.0
2016-Sep-24 21:32N 38°13' E 015°17'0 0.0
2016-Sep-24 19:32N 38°13' E 015°17'0 0.1
2016-Sep-24 18:32N 38°13' E 015°17'4 4.6
2016-Sep-24 17:34N 38°17' E 015°18'1312.5
2016-Sep-24 16:33N 38°30' E 015°23'2411.8
2016-Sep-24 14:32N 38°53' E 015°18'36012.4
2016-Sep-23 09:33N 43°32' E 010°15'4 1.4
2016-Sep-23 06:31N 43°35' E 010°19'0 0.0
2016-Sep-23 04:31N 43°35' E 010°19'0 0.0
2016-Sep-23 03:31N 43°35' E 010°19'0 0.0
2016-Sep-23 02:31N 43°35' E 010°19'0 0.0
2016-Sep-23 01:31N 43°35' E 010°19'0 0.0
2016-Sep-23 00:31N 43°35' E 010°19'0 0.0
2016-Sep-22 23:31N 43°35' E 010°19'0 0.0
2016-Sep-22 20:30N 43°35' E 010°19'0 0.0
2016-Sep-22 12:33N 43°35' E 010°19'6 0.7
2016-Sep-22 04:33N 43°30' E 010°17'0 0.1
2016-Sep-22 03:30N 43°30' E 010°17'0 0.0
2016-Sep-22 00:33N 43°30' E 010°17'0 0.1
2016-Sep-21 23:30N 43°30' E 010°17'0 0.0
2016-Sep-21 22:33N 43°30' E 010°17'0 0.0
2016-Sep-21 19:33N 43°30' E 010°17'12 4.0
2016-Sep-21 16:33N 43°19' E 010°10'36612.2
2016-Sep-20 10:31N 38°38' E 015°21'2513.0
2016-Sep-20 08:33N 38°13' E 015°16'0 0.4
2016-Sep-20 07:31N 38°13' E 015°16'0 0.0
2016-Sep-20 06:30N 38°13' E 015°16'0 0.0
2016-Sep-20 02:30N 38°13' E 015°16'0 0.0
2016-Sep-19 23:30N 38°13' E 015°16'0 0.0
2016-Sep-19 19:30N 38°13' E 015°16'0 0.0
2016-Sep-19 18:30N 38°13' E 015°16'0 0.0
2016-Sep-19 14:06N 38°13' E 015°16'0 0.0
2016-Sep-19 13:30N 38°13' E 015°16'0 0.0
2016-Sep-19 12:30N 38°13' E 015°16'0 0.0
2016-Sep-19 11:30N 38°13' E 015°16'0 0.0
2016-Sep-19 09:30N 38°13' E 015°16'0 0.0
2016-Sep-19 07:30N 38°13' E 015°16'0 0.0
2016-Sep-19 06:30N 38°13' E 015°16'6 2.0
2016-Sep-19 03:34N 38°18' E 015°18'1313.2
2016-Sep-19 02:34N 38°32' E 015°19'2613.1
2016-Sep-19 00:34N 38°58' E 015°17'10511.7
2016-Sep-18 15:34N 40°29' E 014°10'  

Dump ship's entire track history